Historyczne dane pomiarowe

Dodano dane terminowe – wersja testowa.

Dane z okresu 1951-2019

Wersja bazy: 1.34 [2019-03-16, lista zmian], aktualizacja planowana na 2019-04-15

Dane meteo z obszaru Polski uzyskane na podstawie danych udostępnionych przez Instytut Meteorologii i Gospodarki Wodnej – Państwowy Instytut Badawczy.

 

Wybierz Datę:    

       

TemperaturaWilgotnośćWiatrCiśnienieOpadyŚniegCzas trwania zjawisk
 Stacja t tx tn tng RH VA  wxwx mslp ppp RRR   cm mm wxwxwxwxwxwxwx
1987-08-14 12.1 17.4 6.3- 87.3- 5.7 3.7---- 0.5------------
1987-08-13 13.0 18.2 6.7- 75.5- 4.7 1.3---- 0.0------------
1987-08-12 13.1 18.0 9.2- 75.0- 4.0 2.0---- 0.0------------
1987-08-11 13.9 17.0 10.7- 76.8- 6.0 2.3---- 0.0------------
1987-08-10 14.6 21.0 11.5- 83.8- 7.0 0.7---- 23.0------------
1987-08-09 16.8 23.8 8.1- 61.5- 5.0 2.3---- 0.0------------
1987-08-08 15.2 20.0 8.0- 67.0- 1.7 2.0---- 0.0------------
1987-08-07 11.3 13.6 4.8- 78.0- 5.7 1.0---- 1.0------------
1987-08-06 12.2 16.2 8.9- 74.5- 5.0 1.3---- 1.7------------
1987-08-05 11.8 15.6 8.5- 87.5- 7.7 1.3---- 0.6------------
1987-08-04 16.2 18.6 12.6- 80.8- 7.3 1.7---- 0.6------------
1987-08-03 16.3 20.5 11.6- 72.8- 4.7 1.7---- 0.5------------
1987-08-02 15.3 19.5 12.7- 71.3- 6.0 1.3---- 9.9------------
1987-08-01 14.8 20.7 7.9- 77.5- 6.3 3.0---- 2.2------------
1987-07-31 15.5 20.7 12.7- 83.8- 8.0 2.0---- 0.6------------
1987-07-30 18.3 23.8 11.1- 74.0- 3.7 1.7---- 4.3------------
1987-07-29 14.8 20.0 9.7- 70.3- 7.0 1.7---- 0.1------------
1987-07-28 14.1 15.9 11.5- 80.3- 7.3 2.0---- 1.2------------
1987-07-27 13.5 17.1 8.1- 68.8- 7.3 2.3---- 3.8------------
1987-07-26 13.5 19.3 10.3- 94.0- 7.3 1.3---- 13.3------------
1987-07-25 19.1 24.6 13.4- 79.5- 6.0 1.0---- 4.8------------
1987-07-24 20.4 26.2 17.0- 82.3- 3.0 1.3---- 1.2------------
1987-07-23 19.6 26.6 12.1- 79.8- 4.3 1.7---- 8.5------------
1987-07-22 19.3 24.2 15.7- 74.3- 3.3 2.0---- 0.0------------
1987-07-21 20.3 24.9 14.0- 80.8- 4.0 1.7---- 0.0------------
1987-07-20 20.5 23.9 17.8- 75.3- 3.7 2.3---- 0.0------------
1987-07-19 21.8 27.0 16.5- 76.5- 6.0 2.3---- 3.3------------
1987-07-18 24.4 28.2 19.9- 67.8- 2.0 1.3---- 0.0------------
1987-07-17 23.2 30.0 15.5- 66.0- 4.3 2.3---- 0.0------------
1987-07-16 20.0 25.9 13.2- 76.3- 6.0 1.7---- 0.0------------
1987-07-15 16.9 22.8 8.7- 78.0- 0.7 2.0---- 0.0------------
1987-07-14 16.7 20.7 11.8- 69.0- 1.7 1.7---- 0.0------------
1987-07-13 19.1 25.8 13.5- 76.5- 5.0 1.3---- 0.0------------
1987-07-12 22.5 28.6 15.1- 56.8- 4.7 4.7---- 15.7------------
1987-07-11 16.7 24.2 7.6- 70.0- 1.0 1.3---- 0.0------------
1987-07-10 14.9 19.6 9.0- 74.0- 5.0 1.3---- 0.0------------
1987-07-09 17.0 23.3 14.5- 83.3- 8.0 1.0---- 24.5------------
1987-07-08 21.0 28.6 10.5- 55.3- 1.3 2.3---- 0.0------------
1987-07-07 17.8 25.0 8.3- 70.5- 0.0 2.0---- 0.0------------
1987-07-06 16.6 22.3 9.2- 74.5- 2.7 1.0---- 0.0------------
1987-07-05 15.7 20.1 13.4- 80.8- 5.0 1.0---- 0.1------------
1987-07-04 19.7 23.5 14.5- 69.5- 5.7 2.0---- 0.0------------
1987-07-03 18.1 21.3 14.6- 75.0- 8.0 2.7---- 0.0------------
1987-07-02 18.3 26.4 14.6- 91.3- 8.0 0.3---- 0.0------------
1987-07-01 23.8 30.4 16.8- 69.0- 0.3 1.0---- 0.0------------
1987-06-30 21.7 27.6 13.7- 77.8- 2.7 1.0---- 0.0------------
1987-06-29 20.2 24.8 16.5- 80.8- 3.7 1.3---- 0.0------------
1987-06-28 19.2 25.0 12.6- 74.5- 5.0 1.3---- 0.2------------
1987-06-27 17.0 21.0 15.1- 76.3- 8.0 0.7---- 0.5------------
1987-06-26 16.3 23.6 7.0- 67.3- 5.3 4.3---- 19.5------------
1987-06-25 14.1 19.0 12.4- 77.3- 5.0 1.7---- 2.8------------
1987-06-24 16.3 21.0 11.0- 66.5- 5.7 2.3---- 1.8------------
1987-06-23 16.0 21.0 12.6- 73.3- 7.0 2.0---- 0.2------------
1987-06-22 14.4 17.9 12.4- 88.8- 8.0 1.0---- 0.1------------
1987-06-21 14.5 19.4 8.4- 82.3- 7.3 1.7---- 2.4------------
1987-06-20 14.5 21.0 6.8- 62.0- 5.7 1.7---- 0.3------------
1987-06-19 13.0 18.1 7.4- 66.5- 3.3 2.3---- 0.0------------
1987-06-18 9.7 14.4 5.8- 81.5- 5.7 2.3---- 3.0------------
1987-06-17 10.4 14.1 6.7- 80.5- 7.0 1.3---- 2.0------------
1987-06-16 13.9 22.9 10.0- 80.3- 7.3 0.7---- 23.4------------
678.5 ms

 

Źródłem pochodzenia danych jest Instytut Meteorologii i Gospodarki Wodnej – Państwowy Instytut Badawczy. Dane Instytutu Meteorologii i Gospodarki Wodnej – Państwowego Instytutu Badawczego zostały przetworzone.

Dane źródłowe można odnaleźć na stronie https://dane.imgw.pl